Time;durP1;ratioP1;P1;durP2;ratioP2;P2;SDS_P1;SDS_P2;PMS_P1;PMS_P2;Temp;Humidity;BMP_temperature;BMP_pressure;BME280_temperature;BME280_humidity;BME280_pressure;Samples;Min_cycle;Max_cycle;Signal;HPM_P1;HPM_P2
2023/07/28 00:00:45;;;;;;;1.45;0.60;;;;;;;21.54;50.33;100467.66;16114503;19;129720;-57
2023/07/28 00:06:07;;;;;;;0.98;0.60;;;;;;;21.52;50.17;100463.22;16110698;19;129524;-56
2023/07/28 00:11:29;;;;;;;2.75;0.60;;;;;;;21.52;50.49;100463.22;16110362;19;129867;-57
2023/07/28 00:16:56;;;;;;;1.10;0.50;;;;;;;21.54;50.08;100462.91;16115331;19;129584;-55
2023/07/28 00:22:18;;;;;;;0.60;0.35;;;;;;;21.52;50.27;100463.22;16112540;19;131410;-57
2023/07/28 00:27:40;;;;;;;0.70;0.50;;;;;;;21.51;49.98;100469.88;16107928;19;130076;-55
2023/07/28 00:33:02;;;;;;;3.03;0.60;;;;;;;21.50;50.26;100476.56;16109627;19;131475;-56
2023/07/28 00:38:24;;;;;;;1.10;0.55;;;;;;;21.50;50.32;100471.00;16110322;19;130865;-53
2023/07/28 00:43:46;;;;;;;3.42;0.80;;;;;;;21.50;50.12;100470.13;16111371;19;131460;-56
2023/07/28 00:49:08;;;;;;;1.65;0.50;;;;;;;21.49;50.02;100468.47;16107453;19;131485;-51
2023/07/28 00:54:30;;;;;;;3.83;0.60;;;;;;;21.48;50.15;100462.06;16111551;19;129635;-53
2023/07/28 00:59:53;;;;;;;1.58;0.60;;;;;;;21.49;50.14;100462.91;16105956;19;129933;-55
2023/07/28 01:05:15;;;;;;;0.75;0.40;;;;;;;21.48;50.08;100475.97;16109090;19;130030;-55
2023/07/28 01:10:38;;;;;;;1.20;0.40;;;;;;;21.47;50.10;100465.13;16106831;19;131031;-56
2023/07/28 01:16:00;;;;;;;0.93;0.50;;;;;;;21.46;49.97;100469.84;16106899;19;132384;-55
2023/07/28 01:21:30;;;;;;;0.65;0.40;;;;;;;21.47;50.24;100471.50;16108018;19;130242;-55
2023/07/28 01:26:52;;;;;;;0.73;0.60;;;;;;;21.46;50.30;100477.38;16107529;19;131101;-55
2023/07/28 01:32:14;;;;;;;0.30;0.25;;;;;;;21.45;49.83;100484.84;16107984;19;130769;-56
2023/07/28 01:37:36;;;;;;;0.88;0.40;;;;;;;21.44;49.83;100480.41;16104587;19;130412;-53
2023/07/28 01:42:58;;;;;;;0.50;0.30;;;;;;;21.44;50.30;100485.97;16105812;19;131384;-54
2023/07/28 01:48:20;;;;;;;2.17;0.60;;;;;;;21.44;49.84;100488.75;16104872;19;129937;-55
2023/07/28 01:53:42;;;;;;;0.88;0.30;;;;;;;21.43;50.19;100487.06;16108498;19;131734;-55
2023/07/28 01:59:04;;;;;;;0.45;0.40;;;;;;;21.44;50.04;100477.63;16112201;19;130295;-53
2023/07/28 02:04:26;;;;;;;0.50;0.40;;;;;;;21.42;50.31;100479.84;16118316;19;130647;-56
2023/07/28 02:09:48;;;;;;;0.52;0.38;;;;;;;21.42;50.03;100485.41;16122274;19;130353;-56
2023/07/28 02:15:11;;;;;;;1.00;0.52;;;;;;;21.42;49.94;100482.63;16120580;19;130718;-57
2023/07/28 02:20:35;;;;;;;0.98;0.40;;;;;;;21.43;50.11;100483.47;16119960;19;131217;-57
2023/07/28 02:25:59;;;;;;;1.63;0.50;;;;;;;21.41;49.81;100483.75;16114901;19;131573;-56
2023/07/28 02:31:20;;;;;;;0.90;0.40;;;;;;;21.41;49.92;100483.75;16115394;19;130212;-55
2023/07/28 02:36:42;;;;;;;0.45;0.35;;;;;;;21.41;49.82;100489.31;16124064;19;130528;-56
2023/07/28 02:42:06;;;;;;;1.83;0.28;;;;;;;21.41;49.85;100491.25;16119303;19;130768;-54
2023/07/28 02:47:28;;;;;;;0.60;0.40;;;;;;;21.40;50.03;100489.59;16117019;19;131831;-56
2023/07/28 02:52:50;;;;;;;0.73;0.30;;;;;;;21.40;50.00;100493.22;16122301;19;130245;-54
2023/07/28 02:58:13;;;;;;;0.85;0.50;;;;;;;21.39;49.91;100485.97;16118112;19;130530;-56
2023/07/28 03:03:35;;;;;;;0.77;0.43;;;;;;;21.39;50.09;100499.91;16119692;19;129332;-60
2023/07/28 03:08:59;;;;;;;0.90;0.30;;;;;;;21.40;49.90;100504.34;16116029;19;129629;-64
2023/07/28 03:14:21;;;;;;;0.50;0.35;;;;;;;21.39;49.71;100504.59;16122931;19;131404;-63
2023/07/28 03:19:43;;;;;;;2.25;0.30;;;;;;;21.40;49.89;100507.13;16120272;19;129901;-54
2023/07/28 03:25:05;;;;;;;1.40;0.43;;;;;;;21.39;50.16;100502.69;16117356;19;130646;-63
2023/07/28 03:30:27;;;;;;;6.40;0.88;;;;;;;21.38;49.98;100509.34;16115984;19;130488;-66
2023/07/28 03:35:48;;;;;;;4.35;0.70;;;;;;;21.38;49.83;100512.13;16118292;19;131247;-56
2023/07/28 03:41:10;;;;;;;1.55;0.43;;;;;;;21.38;49.94;100506.56;16111913;19;131609;-57
2023/07/28 03:46:32;;;;;;;1.60;0.50;;;;;;;21.39;50.00;100512.94;16110954;19;130986;-56
2023/07/28 03:51:55;;;;;;;4.63;0.60;;;;;;;21.39;50.02;100507.38;16111015;19;131965;-58
2023/07/28 03:57:17;;;;;;;3.30;0.60;;;;;;;21.38;49.84;100509.34;16117338;19;129760;-57
2023/07/28 04:02:39;;;;;;;6.15;0.98;;;;;;;21.37;50.13;100516.03;16115048;19;131273;-59
2023/07/28 04:08:01;;;;;;;2.17;0.43;;;;;;;21.36;49.94;100508.78;16113121;19;130627;-57
2023/07/28 04:13:23;;;;;;;1.15;0.65;;;;;;;21.36;50.15;100503.22;16110932;19;129821;-56
2023/07/28 04:18:45;;;;;;;3.13;0.45;;;;;;;21.36;50.17;100508.78;16107041;19;130360;-55
2023/07/28 04:24:08;;;;;;;3.72;0.63;;;;;;;21.37;49.66;100504.91;16104227;19;129574;-55
2023/07/28 04:29:30;;;;;;;2.35;0.52;;;;;;;21.35;49.66;100496.81;16115595;19;130781;-55
2023/07/28 04:34:53;;;;;;;1.23;0.40;;;;;;;21.36;49.89;100511.56;16113629;19;129888;-57
2023/07/28 04:40:15;;;;;;;2.13;0.40;;;;;;;21.36;49.75;100508.78;16112998;19;133356;-57
2023/07/28 04:45:38;;;;;;;1.35;0.30;;;;;;;21.34;50.15;100511.84;16108073;19;130447;-57
2023/07/28 04:51:00;;;;;;;1.63;0.50;;;;;;;21.34;49.62;100528.53;16111013;19;129521;-53
2023/07/28 04:56:22;;;;;;;2.50;0.40;;;;;;;21.34;49.62;100531.34;16106476;19;130485;-56
2023/07/28 05:01:44;;;;;;;1.38;0.30;;;;;;;21.34;50.05;100534.13;16106540;19;130487;-57
2023/07/28 05:07:06;;;;;;;3.28;0.57;;;;;;;21.34;50.14;100544.38;16112433;19;129805;-55
2023/07/28 05:12:28;;;;;;;2.15;0.40;;;;;;;21.33;49.96;100549.13;16109452;19;130306;-55
2023/07/28 05:17:50;;;;;;;3.45;0.40;;;;;;;21.33;50.07;100548.28;16103672;19;130904;-55
2023/07/28 05:23:12;;;;;;;0.90;0.40;;;;;;;21.32;50.08;100553.03;16098635;19;129595;-53
2023/07/28 05:28:35;;;;;;;2.00;0.38;;;;;;;21.40;50.56;100564.72;16104133;19;130439;-55
2023/07/28 05:33:57;;;;;;;4.38;0.40;;;;;;;21.43;50.16;100564.19;16112651;19;130230;-55
2023/07/28 05:39:19;;;;;;;4.35;0.40;;;;;;;21.43;49.99;100558.59;16124680;19;129701;-54
2023/07/28 05:44:44;;;;;;;1.92;0.32;;;;;;;21.41;50.18;100560.81;16125706;19;129731;-56
2023/07/28 05:50:07;;;;;;;5.45;0.70;;;;;;;21.40;50.34;100576.69;16117555;19;129063;-54
2023/07/28 05:55:29;;;;;;;2.20;0.30;;;;;;;21.40;50.08;100571.13;16117217;19;129509;-51
2023/07/28 06:00:51;;;;;;;4.72;0.60;;;;;;;21.40;50.18;100568.34;16121755;19;129489;-54
2023/07/28 06:06:14;;;;;;;6.50;0.75;;;;;;;21.39;50.47;100586.16;16122753;19;133896;-57
2023/07/28 06:11:36;;;;;;;2.30;0.47;;;;;;;21.41;50.40;100588.66;16119340;19;130616;-57
2023/07/28 06:16:58;;;;;;;1.95;0.50;;;;;;;21.40;50.33;100587.84;16118054;19;130726;-59
2023/07/28 06:22:23;;;;;;;3.65;0.52;;;;;;;21.41;50.48;100578.38;16123191;19;130887;-56
2023/07/28 06:27:45;;;;;;;1.42;0.63;;;;;;;21.41;50.61;100583.94;16117958;19;131073;-54
2023/07/28 06:33:07;;;;;;;4.82;0.55;;;;;;;21.41;50.39;100595.06;16119324;19;130625;-60
2023/07/28 06:38:29;;;;;;;3.58;0.43;;;;;;;21.41;50.52;100595.06;16121743;19;130597;-58
2023/07/28 06:43:51;;;;;;;3.55;0.70;;;;;;;21.42;50.75;100602.28;16092545;19;132127;-57
2023/07/28 06:49:13;;;;;;;1.08;0.45;;;;;;;21.44;50.72;100608.41;16115344;19;129668;-59
2023/07/28 06:54:36;;;;;;;5.47;0.82;;;;;;;21.46;50.30;100613.72;16114792;19;130259;-59
2023/07/28 06:59:58;;;;;;;3.35;0.70;;;;;;;21.49;50.21;100621.53;16120758;19;129540;-57
2023/07/28 07:05:20;;;;;;;2.58;0.80;;;;;;;21.51;50.75;100614.63;16118575;19;130646;-58
2023/07/28 07:10:52;;;;;;;3.45;0.95;;;;;;;21.56;50.39;100607.38;16118827;19;130721;-57
2023/07/28 07:16:17;;;;;;;2.00;0.60;;;;;;;21.57;50.50;100614.59;16119283;19;129727;-58
2023/07/28 07:21:45;;;;;;;5.32;0.90;;;;;;;21.58;50.66;100617.13;16118916;19;129668;-58
2023/07/28 07:27:10;;;;;;;3.67;0.77;;;;;;;21.59;50.54;100621.59;16119350;19;129695;-58
2023/07/28 07:32:33;;;;;;;;;;;;;;;21.57;50.74;100620.19;16118925;19;129877;-57
2023/07/28 07:37:55;;;;;;;4.25;1.08;;;;;;;21.60;50.54;100623.25;16115812;19;130417;-57
2023/07/28 07:43:20;;;;;;;2.13;0.60;;;;;;;21.61;50.81;100621.31;16116867;19;129517;-58
2023/07/28 07:48:43;;;;;;;5.63;0.77;;;;;;;21.69;50.87;100628.28;16117920;19;129589;-58
2023/07/28 07:54:04;;;;;;;2.25;0.60;;;;;;;21.76;50.72;100623.28;16115151;19;129726;-57
2023/07/28 07:59:30;;;;;;;4.07;0.68;;;;;;;21.82;51.13;100619.41;16117098;19;129398;-56
2023/07/28 08:04:54;;;;;;;1.08;0.52;;;;;;;21.91;50.90;100625.28;16120755;19;129551;-56
2023/07/28 08:10:16;;;;;;;1.92;0.77;;;;;;;21.95;51.48;100635.59;16122560;19;129860;-56
2023/07/28 08:15:38;;;;;;;2.95;1.27;;;;;;;21.96;51.35;100639.19;16164808;19;131125;-58
2023/07/28 08:21:00;;;;;;;8.35;0.90;;;;;;;21.96;51.73;100640.06;16152129;19;129861;-59
2023/07/28 08:26:22;;;;;;;10.55;0.80;;;;;;;22.01;51.85;100643.94;16158580;19;129488;-59
2023/07/28 08:31:44;;;;;;;3.75;0.93;;;;;;;22.01;51.52;100642.00;16172542;19;129343;-59
2023/07/28 08:37:06;;;;;;;4.68;0.90;;;;;;;22.12;51.44;100648.41;16173061;19;130989;-59
2023/07/28 08:42:37;;;;;;;5.80;1.10;;;;;;;22.18;51.57;100644.53;16137657;19;129531;-60
2023/07/28 08:47:59;;;;;;;3.35;0.57;;;;;;;22.16;51.34;100654.25;16123547;19;129896;-60
2023/07/28 08:53:21;;;;;;;4.80;0.70;;;;;;;22.10;51.61;100651.47;16124569;19;129406;-59
2023/07/28 08:58:44;;;;;;;2.58;0.60;;;;;;;22.07;51.63;100651.22;16125076;19;130647;-58
2023/07/28 09:04:14;;;;;;;3.40;0.65;;;;;;;22.05;51.38;100654.25;16122742;19;130385;-57
2023/07/28 09:09:37;;;;;;;31.63;2.75;;;;;;;22.04;51.39;100662.91;16114655;19;129764;-53
2023/07/28 09:14:59;;;;;;;32.25;3.30;;;;;;;22.04;51.43;100663.72;16109959;19;133806;-52
2023/07/28 09:20:20;;;;;;;11.60;1.67;;;;;;;22.05;51.84;100653.44;16107201;19;131753;-52
2023/07/28 09:25:42;;;;;;;14.00;2.05;;;;;;;22.03;51.40;100662.03;16106950;19;130998;-53
2023/07/28 09:31:05;;;;;;;19.70;1.70;;;;;;;22.02;51.47;100668.75;16109493;19;130304;-54
2023/07/28 09:36:27;;;;;;;9.45;1.35;;;;;;;22.00;51.49;100678.47;16108581;19;130341;-55
2023/07/28 09:41:50;;;;;;;11.35;1.33;;;;;;;21.99;51.43;100680.44;16104226;19;129896;-55
2023/07/28 09:47:12;;;;;;;14.02;1.55;;;;;;;21.98;51.28;100682.38;16105532;19;130818;-56
2023/07/28 09:52:40;;;;;;;13.88;1.65;;;;;;;22.00;51.52;100682.13;16103086;19;129640;-56
2023/07/28 09:58:06;;;;;;;5.22;1.05;;;;;;;22.04;51.17;100674.84;16108257;19;130284;-56
2023/07/28 10:03:29;;;;;;;6.10;1.20;;;;;;;22.04;51.24;100687.97;16106333;19;130201;-54
2023/07/28 10:08:51;;;;;;;5.70;1.05;;;;;;;22.03;51.05;100689.91;16105210;19;129982;-51
2023/07/28 10:14:26;;;;;;;4.88;1.10;;;;;;;22.05;51.14;100693.25;16104024;19;129954;-56
2023/07/28 10:19:48;;;;;;;6.00;0.93;;;;;;;22.04;51.39;100699.09;16109200;19;133807;-55
2023/07/28 10:25:10;;;;;;;4.82;0.75;;;;;;;22.09;51.13;100697.16;16119076;19;131098;-54
2023/07/28 10:30:52;;;;;;;4.43;0.82;;;;;;;22.11;50.92;100689.38;16117782;19;130828;-56
2023/07/28 10:36:18;;;;;;;3.90;1.00;;;;;;;22.12;51.41;100692.97;16111838;19;129741;-52
2023/07/28 10:41:58;;;;;;;6.05;0.80;;;;;;;22.16;51.66;100693.25;16117761;19;130053;-53
2023/07/28 10:47:22;;;;;;;2.20;0.80;;;;;;;22.13;51.73;100684.38;16119058;19;131122;-50
2023/07/28 10:52:45;;;;;;;6.03;0.77;;;;;;;22.13;51.64;100689.09;16120124;19;131397;-51
2023/07/28 10:58:07;;;;;;;1.17;0.65;;;;;;;22.12;52.08;100693.84;16118281;19;129603;-52
2023/07/28 11:03:29;;;;;;;0.82;0.68;;;;;;;22.11;51.83;100696.88;16120043;19;131105;-54
2023/07/28 11:08:51;;;;;;;1.65;0.60;;;;;;;22.09;51.87;100697.16;16120164;19;130410;-54
2023/07/28 11:14:16;;;;;;;2.65;0.77;;;;;;;22.07;52.20;100695.78;16117768;19;130883;-53
2023/07/28 11:19:38;;;;;;;2.27;0.80;;;;;;;22.06;52.19;100699.66;16112412;19;130541;-51
2023/07/28 11:25:00;;;;;;;3.53;0.50;;;;;;;22.05;52.27;100698.81;16113804;19;131683;-54
2023/07/28 11:30:23;;;;;;;0.82;0.50;;;;;;;22.06;51.97;100697.72;16118717;19;129803;-55
2023/07/28 11:35:46;;;;;;;6.63;0.40;;;;;;;22.07;51.96;100702.16;16116750;19;129581;-53
2023/07/28 11:41:08;;;;;;;1.05;0.30;;;;;;;22.08;52.14;100703.84;16117453;19;129793;-55
2023/07/28 11:46:38;;;;;;;0.63;0.30;;;;;;;22.10;51.96;100703.56;16115970;19;131563;-54
2023/07/28 11:52:01;;;;;;;1.83;0.55;;;;;;;22.09;51.96;100715.84;16115802;19;129951;-55
2023/07/28 11:57:25;;;;;;;3.83;0.50;;;;;;;22.10;51.84;100718.34;16117478;19;130072;-54
2023/07/28 12:02:46;;;;;;;1.08;0.40;;;;;;;22.12;51.79;100721.69;16115341;19;130631;-55
2023/07/28 12:08:09;;;;;;;0.98;0.40;;;;;;;22.16;51.70;100719.19;16107093;19;131041;-52
2023/07/28 12:13:31;;;;;;;6.43;0.73;;;;;;;22.17;51.91;100717.22;16109037;19;131567;-52
2023/07/28 12:18:58;;;;;;;1.17;0.52;;;;;;;22.20;51.79;100716.69;16112627;19;131318;-60
2023/07/28 12:24:20;;;;;;;4.53;0.60;;;;;;;22.26;51.83;100721.19;16104799;19;132115;-56
2023/07/28 12:29:42;;;;;;;1.60;0.43;;;;;;;22.30;51.82;100716.72;16108514;19;130318;-55
2023/07/28 12:35:28;;;;;;;8.35;0.70;;;;;;;22.31;51.25;100718.41;16107104;19;130549;-54
2023/07/28 12:40:53;;;;;;;2.40;0.50;;;;;;;22.28;51.51;100718.94;16107432;19;131018;-55
2023/07/28 12:46:17;;;;;;;2.17;0.52;;;;;;;22.26;51.33;100727.59;16109642;19;130017;-51
2023/07/28 12:51:39;;;;;;;1.92;0.60;;;;;;;22.27;51.46;100717.31;16114285;19;129526;-56
2023/07/28 12:57:18;;;;;;;2.53;0.65;;;;;;;22.29;51.36;100712.25;16111526;19;130137;-50
2023/07/28 13:02:41;;;;;;;3.90;0.60;;;;;;;22.28;51.55;100716.16;16106473;19;131878;-54
2023/07/28 13:08:03;;;;;;;1.98;0.40;;;;;;;22.28;51.17;100713.38;16108206;19;129560;-54
2023/07/28 13:13:30;;;;;;;1.65;0.60;;;;;;;22.28;51.34;100716.16;16108439;19;130484;-56
2023/07/28 13:18:52;;;;;;;4.20;0.60;;;;;;;22.27;51.28;100717.31;16104171;19;129586;-56
2023/07/28 13:24:14;;;;;;;1.50;0.40;;;;;;;22.24;51.29;100712.28;16111399;19;130822;-53
2023/07/28 13:29:36;;;;;;;2.00;0.55;;;;;;;22.25;51.14;100703.63;16103487;19;130550;-57
2023/07/28 13:34:58;;;;;;;4.55;0.57;;;;;;;22.25;51.45;100708.38;16103629;19;130052;-57
2023/07/28 13:40:20;;;;;;;1.88;0.60;;;;;;;22.23;51.04;100710.59;16107994;19;129410;-58
2023/07/28 13:45:42;;;;;;;3.28;0.75;;;;;;;22.21;51.03;100721.19;16105403;19;129648;-55
2023/07/28 13:51:04;;;;;;;2.33;0.60;;;;;;;22.20;50.85;100711.97;16107685;19;130632;-58
2023/07/28 13:56:27;;;;;;;2.58;0.98;;;;;;;22.22;50.86;100708.91;16123926;19;130068;-59
2023/07/28 14:01:50;;;;;;;1.58;0.50;;;;;;;22.23;51.23;100705.03;16121557;19;129678;-57
2023/07/28 14:07:12;;;;;;;0.82;0.65;;;;;;;22.24;50.84;100704.75;16121479;19;129434;-59
2023/07/28 14:12:34;;;;;;;1.50;0.50;;;;;;;22.25;50.63;100709.19;16123377;19;130621;-56
2023/07/28 14:17:56;;;;;;;0.50;0.40;;;;;;;22.26;50.68;100705.31;16124961;19;129255;-54
2023/07/28 14:23:28;;;;;;;1.40;0.70;;;;;;;22.30;50.59;100704.75;16116670;19;129747;-59
2023/07/28 14:28:50;;;;;;;1.45;0.43;;;;;;;22.28;50.63;100700.28;16121882;19;130435;-57
2023/07/28 14:34:12;;;;;;;2.35;0.68;;;;;;;22.28;50.65;100699.44;16113680;19;129711;-58
2023/07/28 14:39:34;;;;;;;1.35;0.60;;;;;;;22.30;50.56;100704.75;16105852;19;130421;-58
2023/07/28 14:44:56;;;;;;;2.85;0.80;;;;;;;22.30;50.75;100702.78;16114286;19;131831;-60
2023/07/28 14:50:18;;;;;;;0.80;0.50;;;;;;;22.30;50.45;100702.78;16123052;19;129475;-57
2023/07/28 14:55:40;;;;;;;1.02;0.60;;;;;;;22.30;50.57;100705.56;16124653;19;130375;-61
2023/07/28 15:01:04;;;;;;;6.18;0.65;;;;;;;22.29;50.45;100701.13;16119206;19;129477;-61
2023/07/28 15:06:26;;;;;;;1.20;0.60;;;;;;;22.26;50.46;100704.47;16115944;19;130033;-60
2023/07/28 15:11:48;;;;;;;4.38;0.75;;;;;;;22.25;50.52;100702.81;16117733;19;133794;-60
2023/07/28 15:17:11;;;;;;;4.68;0.93;;;;;;;22.27;50.69;100700.59;16122199;19;130260;-60
2023/07/28 15:22:32;;;;;;;2.00;0.73;;;;;;;22.30;50.67;100691.66;16124339;19;130942;-60
2023/07/28 15:27:55;;;;;;;1.65;1.00;;;;;;;22.34;50.38;100689.16;16123010;19;129595;-60
2023/07/28 15:33:23;;;;;;;2.67;1.10;;;;;;;22.36;50.16;100687.75;16119666;19;130260;-59
2023/07/28 15:38:45;;;;;;;1.85;0.85;;;;;;;22.37;50.45;100683.00;16119843;19;130596;-59
2023/07/28 15:44:07;;;;;;;2.35;0.90;;;;;;;22.36;50.06;100684.97;16111602;19;130217;-57
2023/07/28 15:49:29;;;;;;;2.53;0.90;;;;;;;22.37;50.47;100681.06;16116983;19;131562;-59
2023/07/28 15:54:51;;;;;;;3.38;1.17;;;;;;;22.39;49.98;100675.22;16112047;19;131203;-59
2023/07/28 16:00:14;;;;;;;1.40;1.10;;;;;;;22.39;50.58;100681.63;16115407;19;129689;-60
2023/07/28 16:05:37;;;;;;;1.85;1.13;;;;;;;22.38;50.18;100671.59;16113976;19;129999;-59
2023/07/28 16:10:59;;;;;;;2.97;1.10;;;;;;;22.35;50.32;100677.72;16107985;19;128950;-59
2023/07/28 16:16:22;;;;;;;2.97;1.20;;;;;;;22.35;50.22;100666.56;16104423;19;131458;-59
2023/07/28 16:21:44;;;;;;;2.88;1.15;;;;;;;22.33;50.11;100657.66;16108357;19;130839;-59
2023/07/28 16:27:06;;;;;;;2.92;0.73;;;;;;;22.34;50.05;100667.69;16112112;19;131561;-59
2023/07/28 16:32:28;;;;;;;0.93;0.82;;;;;;;22.33;49.98;100654.88;16111641;19;134202;-59
2023/07/28 16:37:50;;;;;;;1.33;0.90;;;;;;;22.35;49.94;100662.94;16104354;19;130465;-59
2023/07/28 16:43:12;;;;;;;1.30;0.77;;;;;;;22.35;50.17;100655.44;16108657;19;129976;-59
2023/07/28 16:48:34;;;;;;;1.25;0.80;;;;;;;22.35;50.06;100646.22;16106642;19;131184;-59
2023/07/28 16:53:56;;;;;;;1.52;0.85;;;;;;;22.36;50.23;100643.16;16109998;19;130050;-59
2023/07/28 16:59:18;;;;;;;1.02;0.80;;;;;;;22.36;50.03;100645.97;16109603;19;130941;-59
2023/07/28 17:04:40;;;;;;;1.33;0.88;;;;;;;22.35;49.98;100635.91;16108130;19;129934;-59
2023/07/28 17:10:02;;;;;;;2.50;1.00;;;;;;;22.34;50.08;100637.03;16110200;19;129533;-58
2023/07/28 17:15:24;;;;;;;1.08;0.80;;;;;;;22.33;50.04;100640.94;16106125;19;130341;-59
2023/07/28 17:21:00;;;;;;;1.38;1.05;;;;;;;22.32;49.99;100636.47;16113772;19;130551;-59
2023/07/28 17:26:22;;;;;;;1.33;0.80;;;;;;;22.32;49.93;100633.69;16105476;19;129696;-59
2023/07/28 17:31:44;;;;;;;2.88;1.10;;;;;;;22.30;50.14;100644.28;16118708;19;129959;-59
2023/07/28 17:37:06;;;;;;;1.52;0.80;;;;;;;22.29;49.75;100642.59;16118007;19;129935;-60
2023/07/28 17:42:28;;;;;;;2.00;1.10;;;;;;;22.31;50.27;100639.53;16114826;19;130688;-59
2023/07/28 17:47:50;;;;;;;1.98;1.10;;;;;;;22.32;49.85;100627.28;16122908;19;131419;-59
2023/07/28 17:53:12;;;;;;;1.83;0.70;;;;;;;22.33;50.04;100632.56;16120493;19;131795;-59
2023/07/28 17:58:34;;;;;;;1.42;0.88;;;;;;;22.35;50.25;100633.13;16118470;19;131178;-60
2023/07/28 18:03:56;;;;;;;1.02;0.75;;;;;;;22.34;49.92;100639.81;16121805;19;129914;-59
2023/07/28 18:09:18;;;;;;;3.05;1.08;;;;;;;22.33;49.66;100638.16;16118814;19;130758;-59
2023/07/28 18:14:41;;;;;;;8.63;1.65;;;;;;;22.33;49.83;100643.72;16122086;19;131850;-59
2023/07/28 18:20:03;;;;;;;8.32;1.17;;;;;;;22.33;49.92;100652.09;16125430;19;130471;-59
2023/07/28 18:25:26;;;;;;;7.63;1.33;;;;;;;22.33;50.32;100648.47;16119528;19;130796;-59
2023/07/28 18:30:48;;;;;;;2.50;1.02;;;;;;;22.31;50.38;100651.50;16119563;19;133149;-57
2023/07/28 18:36:10;;;;;;;8.43;1.23;;;;;;;22.30;50.14;100652.63;16119421;19;131126;-56
2023/07/28 18:41:33;;;;;;;3.80;1.00;;;;;;;22.29;50.00;100659.31;16116387;19;130175;-56
2023/07/28 18:46:55;;;;;;;2.67;0.90;;;;;;;22.26;50.09;100654.31;16119825;19;130432;-52
2023/07/28 18:52:17;;;;;;;5.30;1.15;;;;;;;22.25;50.27;100652.66;16120678;19;129708;-60
2023/07/28 18:57:39;;;;;;;7.38;1.35;;;;;;;22.25;50.53;100666.56;16114211;19;130696;-60
2023/07/28 19:03:01;;;;;;;1.55;1.13;;;;;;;22.23;50.43;100654.88;16114032;19;129757;-60
2023/07/28 19:08:24;;;;;;;1.98;1.08;;;;;;;22.20;50.37;100655.38;16116210;19;134207;-60
2023/07/28 19:13:46;;;;;;;3.75;1.10;;;;;;;22.19;50.28;100659.28;16116050;19;130391;-60
2023/07/28 19:19:08;;;;;;;4.95;0.93;;;;;;;22.17;50.31;100667.06;16120194;19;130078;-60
2023/07/28 19:24:30;;;;;;;5.35;1.00;;;;;;;22.16;50.18;100673.75;16117307;19;130764;-60
2023/07/28 19:29:52;;;;;;;4.35;1.17;;;;;;;22.14;50.13;100679.63;16114866;19;129476;-59
2023/07/28 19:35:14;;;;;;;1.60;1.00;;;;;;;22.14;50.19;100682.41;16117184;19;129221;-60
2023/07/28 19:40:36;;;;;;;2.78;0.90;;;;;;;22.13;50.28;100694.66;16115686;19;129970;-58
2023/07/28 19:45:58;;;;;;;1.50;1.00;;;;;;;22.12;50.54;100687.41;16116725;19;131303;-59
2023/07/28 19:51:20;;;;;;;1.90;0.90;;;;;;;22.12;50.53;100691.06;16110192;19;130798;-58
2023/07/28 19:56:42;;;;;;;2.25;1.13;;;;;;;22.11;50.63;100708.03;16119112;19;129938;-60
2023/07/28 20:02:05;;;;;;;3.72;0.98;;;;;;;22.10;50.31;100709.97;16110105;19;131209;-60
2023/07/28 20:07:27;;;;;;;2.88;1.10;;;;;;;22.09;50.50;100699.94;16107913;19;131552;-60
2023/07/28 20:12:49;;;;;;;13.23;2.08;;;;;;;22.09;50.71;100705.53;16114781;19;129728;-59
2023/07/28 20:18:11;;;;;;;9.32;1.20;;;;;;;22.08;50.72;100709.41;16110321;19;130935;-59
2023/07/28 20:23:33;;;;;;;4.25;1.05;;;;;;;22.09;50.23;100716.66;16108310;19;130219;-59
2023/07/28 20:28:55;;;;;;;3.60;1.00;;;;;;;22.07;50.14;100712.50;16113332;19;131702;-59
2023/07/28 20:34:17;;;;;;;6.15;1.00;;;;;;;22.08;50.52;100703.84;16107202;19;131029;-59
2023/07/28 20:39:39;;;;;;;2.22;0.95;;;;;;;22.08;50.50;100701.06;16109720;19;131029;-59
2023/07/28 20:45:01;;;;;;;7.72;1.20;;;;;;;22.06;50.38;100697.72;16108052;19;129835;-59
2023/07/28 20:50:23;;;;;;;24.95;1.92;;;;;;;21.88;51.14;100698.25;16103414;19;130764;-59
2023/07/28 20:55:45;;;;;;;36.25;3.78;;;;;;;21.81;51.81;100704.06;16100530;19;131154;-59
2023/07/28 21:01:07;;;;;;;43.90;5.18;;;;;;;21.91;51.60;100708.84;16109676;19;129978;-59
2023/07/28 21:06:29;;;;;;;50.03;4.05;;;;;;;21.95;51.08;100708.00;16105377;19;130441;-59
2023/07/28 21:11:51;;;;;;;49.58;3.60;;;;;;;22.00;50.87;100700.75;16104518;19;131215;-59
2023/07/28 21:17:13;;;;;;;24.80;3.10;;;;;;;22.00;51.29;100701.63;16107234;19;130228;-59
2023/07/28 21:22:36;;;;;;;21.58;2.90;;;;;;;22.01;51.42;100703.28;16090981;19;129681;-58
2023/07/28 21:27:59;;;;;;;21.75;3.03;;;;;;;22.02;51.24;100713.31;16103773;19;131004;-58
2023/07/28 21:33:21;;;;;;;24.73;2.60;;;;;;;22.03;51.57;100714.97;16102668;19;130142;-58
2023/07/28 21:38:43;;;;;;;21.42;3.03;;;;;;;22.03;51.32;100705.78;16104646;19;131722;-58
2023/07/28 21:44:04;;;;;;;17.48;3.03;;;;;;;22.03;51.38;100701.03;16104158;19;131618;-58
2023/07/28 21:49:26;;;;;;;14.52;2.75;;;;;;;22.02;51.37;100699.41;16107395;19;129770;-57
2023/07/28 21:54:48;;;;;;;34.30;4.30;;;;;;;22.03;51.50;100689.91;16109004;19;134722;-59
2023/07/28 22:00:11;;;;;;;45.95;4.30;;;;;;;22.07;51.80;100682.66;16107610;19;131893;-59
2023/07/28 22:05:33;;;;;;;38.58;4.20;;;;;;;22.08;51.90;100687.13;16109935;19;129825;-59
2023/07/28 22:10:55;;;;;;;38.58;4.05;;;;;;;22.10;52.18;100689.63;16105933;19;129914;-59
2023/07/28 22:16:17;;;;;;;48.28;4.18;;;;;;;22.11;52.03;100699.66;16115611;19;129421;-58
2023/07/28 22:21:39;;;;;;;30.83;3.42;;;;;;;22.11;51.77;100696.88;16122372;19;131223;-58
2023/07/28 22:27:01;;;;;;;23.02;3.65;;;;;;;22.11;51.98;100706.09;16122023;19;129574;-58
2023/07/28 22:32:24;;;;;;;31.05;3.58;;;;;;;22.11;52.13;100697.72;16124139;19;129371;-59
2023/07/28 22:37:46;;;;;;;24.20;4.18;;;;;;;22.12;51.72;100693.84;16120757;19;130566;-62
2023/07/28 22:43:08;;;;;;;18.38;2.75;;;;;;;22.15;52.14;100680.47;16122927;19;129969;-59
2023/07/28 22:48:29;;;;;;;25.08;3.92;;;;;;;22.16;51.90;100673.75;16118449;19;130637;-58
2023/07/28 22:53:51;;;;;;;17.70;3.65;;;;;;;22.15;51.88;100680.47;16118402;19;130993;-57
2023/07/28 22:59:13;;;;;;;26.10;3.45;;;;;;;22.13;52.07;100684.38;16117608;19;129987;-58
2023/07/28 23:04:35;;;;;;;27.67;3.10;;;;;;;22.15;52.35;100680.47;16119896;19;129528;-59
2023/07/28 23:09:57;;;;;;;16.08;3.00;;;;;;;22.14;51.69;100685.19;16120152;19;130586;-58
2023/07/28 23:15:19;;;;;;;19.00;2.78;;;;;;;22.15;52.02;100680.47;16118516;19;130313;-58
2023/07/28 23:20:41;;;;;;;17.20;3.00;;;;;;;22.16;52.09;100693.25;16125360;19;129868;-58
2023/07/28 23:26:03;;;;;;;15.20;3.10;;;;;;;22.15;51.95;100705.53;16117816;19;131149;-59
2023/07/28 23:31:27;;;;;;;16.30;2.67;;;;;;;22.16;52.53;100693.25;16118521;19;130440;-58
2023/07/28 23:36:49;;;;;;;18.77;2.97;;;;;;;22.17;51.98;100689.38;16120354;19;130959;-58
2023/07/28 23:42:11;;;;;;;16.90;2.53;;;;;;;22.16;51.93;100691.31;16119329;19;130432;-59
2023/07/28 23:47:33;;;;;;;17.90;2.83;;;;;;;22.17;51.99;100689.38;16122236;19;131255;-58
2023/07/28 23:52:55;;;;;;;9.98;2.13;;;;;;;22.19;52.10;100689.94;16118330;19;129244;-59
2023/07/28 23:58:17;;;;;;;17.20;3.00;;;;;;;22.17;52.28;100689.38;16119485;19;129630;-58
